createdAt,value
2017-12-24T00:00:01.666Z,7.20
2017-12-24T00:02:29.207Z,7.20
2017-12-24T00:04:56.762Z,7.20
2017-12-24T00:07:24.850Z,7.20
2017-12-24T00:09:52.361Z,7.20
2017-12-24T00:12:19.890Z,7.20
2017-12-24T00:14:48.224Z,7.20
2017-12-24T00:17:15.726Z,7.20
2017-12-24T00:19:44.057Z,7.20
2017-12-24T00:22:11.586Z,7.20
2017-12-24T00:24:39.170Z,7.20
2017-12-24T00:27:06.690Z,7.20
2017-12-24T00:29:34.989Z,7.20
2017-12-24T00:32:02.505Z,7.20
2017-12-24T00:34:30.043Z,7.20
2017-12-24T00:36:57.563Z,7.20
2017-12-24T00:39:25.866Z,7.20
2017-12-24T00:41:53.384Z,7.20
2017-12-24T00:44:21.689Z,7.20
2017-12-24T00:46:49.219Z,7.20
2017-12-24T00:49:17.504Z,7.20
2017-12-24T00:51:45.806Z,7.20
2017-12-24T00:54:13.317Z,7.10
2017-12-24T00:56:40.854Z,7.10
2017-12-24T00:59:08.375Z,7.10
2017-12-24T01:01:35.912Z,7.10
2017-12-24T01:04:03.433Z,7.10
2017-12-24T01:06:30.972Z,7.10
2017-12-24T01:08:58.483Z,7.10
2017-12-24T01:11:26.053Z,7.10
2017-12-24T01:13:54.339Z,7.10
2017-12-24T01:16:22.622Z,7.10
2017-12-24T01:18:50.925Z,7.20
2017-12-24T01:21:18.442Z,7.10
2017-12-24T01:23:45.978Z,7.20
2017-12-24T01:26:13.499Z,7.10
2017-12-24T01:28:41.038Z,7.10
2017-12-24T01:31:09.318Z,7.10
2017-12-24T01:33:37.620Z,7.00
2017-12-24T01:36:05.132Z,7.00
2017-12-24T01:38:32.670Z,7.00
2017-12-24T01:41:00.189Z,7.00
2017-12-24T01:43:27.701Z,7.00
2017-12-24T01:45:55.230Z,7.00
2017-12-24T01:48:22.746Z,7.00
2017-12-24T01:50:51.049Z,7.00
2017-12-24T01:53:18.564Z,7.00
2017-12-24T01:55:46.093Z,7.00
2017-12-24T01:58:13.608Z,7.00
2017-12-24T02:00:41.150Z,7.00
2017-12-24T02:03:08.667Z,7.00
2017-12-24T02:05:36.198Z,7.00
2017-12-24T02:08:03.714Z,7.00
2017-12-24T02:10:31.252Z,7.00
2017-12-24T02:12:58.758Z,7.00
2017-12-24T02:15:27.037Z,6.90
2017-12-24T02:17:55.338Z,7.00
2017-12-24T02:20:22.851Z,7.00
2017-12-24T02:22:50.385Z,7.00
2017-12-24T02:25:17.899Z,7.00
2017-12-24T02:27:46.206Z,7.00
2017-12-24T02:30:13.725Z,7.00
2017-12-24T02:32:42.025Z,7.00
2017-12-24T02:35:09.539Z,7.00
2017-12-24T02:37:37.074Z,7.00
2017-12-24T02:40:04.592Z,6.90
2017-12-24T02:42:32.889Z,6.90
2017-12-24T02:45:00.406Z,6.90
2017-12-24T02:47:27.957Z,6.90
2017-12-24T02:49:55.475Z,6.80
2017-12-24T02:52:22.996Z,6.90
2017-12-24T02:54:51.298Z,6.90
2017-12-24T02:57:18.810Z,6.90
2017-12-24T02:59:46.342Z,6.90
2017-12-24T03:02:14.694Z,6.90
2017-12-24T03:04:42.232Z,6.90
2017-12-24T03:07:10.505Z,6.90
2017-12-24T03:09:38.042Z,6.90
2017-12-24T03:12:05.555Z,6.80
2017-12-24T03:14:33.090Z,6.90
2017-12-24T03:17:01.366Z,6.90
2017-12-24T03:19:29.653Z,6.90
2017-12-24T03:21:57.951Z,6.90
2017-12-24T03:24:25.466Z,6.80
2017-12-24T03:26:53.002Z,6.90
2017-12-24T03:29:20.521Z,6.80
2017-12-24T03:31:48.058Z,6.80
2017-12-24T03:34:16.349Z,6.80
2017-12-24T03:36:44.646Z,6.80
2017-12-24T03:39:12.161Z,6.80
2017-12-24T03:41:39.701Z,6.80
2017-12-24T03:44:07.220Z,6.80
2017-12-24T03:46:34.760Z,6.90
2017-12-24T03:49:03.042Z,6.80
2017-12-24T03:51:31.335Z,6.80
2017-12-24T03:53:58.845Z,6.80
2017-12-24T03:56:26.439Z,6.80
2017-12-24T03:58:54.722Z,6.80
2017-12-24T04:01:23.022Z,6.80
2017-12-24T04:03:50.542Z,6.80
2017-12-24T04:06:18.079Z,6.80
2017-12-24T04:08:45.598Z,6.80
2017-12-24T04:11:13.135Z,6.80
2017-12-24T04:13:41.424Z,6.80
2017-12-24T04:16:09.732Z,6.70
2017-12-24T04:18:37.243Z,6.70
2017-12-24T04:21:04.760Z,6.80
2017-12-24T04:23:32.297Z,6.80
2017-12-24T04:25:59.812Z,6.80
2017-12-24T04:28:27.352Z,6.80
2017-12-24T04:30:54.865Z,6.80
2017-12-24T04:33:23.166Z,6.80
2017-12-24T04:35:50.694Z,6.70
2017-12-24T04:38:18.994Z,6.80
2017-12-24T04:40:46.505Z,6.80
2017-12-24T04:43:14.038Z,6.80
2017-12-24T04:45:41.557Z,6.80
2017-12-24T04:48:09.859Z,6.80
2017-12-24T04:50:37.385Z,6.80
2017-12-24T04:53:04.923Z,6.80
2017-12-24T04:55:32.444Z,6.80
2017-12-24T04:57:59.978Z,6.80
2017-12-24T05:00:28.262Z,6.70
2017-12-24T05:02:56.598Z,6.70
2017-12-24T05:05:24.114Z,6.70
2017-12-24T05:07:51.639Z,6.70
2017-12-24T05:10:19.182Z,6.70
2017-12-24T05:12:46.695Z,6.70
2017-12-24T05:15:14.235Z,6.70
2017-12-24T05:17:42.514Z,6.70
2017-12-24T05:20:10.818Z,6.70
2017-12-24T05:22:38.333Z,6.70
2017-12-24T05:25:05.867Z,6.70
2017-12-24T05:27:33.386Z,6.60
2017-12-24T05:30:00.926Z,6.60
2017-12-24T05:32:29.211Z,6.50
2017-12-24T05:34:57.555Z,6.50
2017-12-24T05:37:25.069Z,6.50
2017-12-24T05:39:52.582Z,6.50
2017-12-24T05:42:20.123Z,6.50
2017-12-24T05:44:48.406Z,6.40
2017-12-24T05:47:15.943Z,6.40
2017-12-24T05:49:44.236Z,6.30
2017-12-24T05:52:12.550Z,6.30
2017-12-24T05:54:40.073Z,6.30
2017-12-24T05:57:08.342Z,6.30
2017-12-24T05:59:35.854Z,6.30
2017-12-24T06:02:03.410Z,6.30
2017-12-24T06:04:30.935Z,6.30
2017-12-24T06:06:58.471Z,6.20
2017-12-24T06:09:25.989Z,6.20
2017-12-24T06:11:53.522Z,6.20
2017-12-24T06:14:21.041Z,6.20
2017-12-24T06:16:48.623Z,6.20
2017-12-24T06:19:16.147Z,6.20
2017-12-24T06:21:44.438Z,6.10
2017-12-24T06:24:11.974Z,6.10
2017-12-24T06:26:40.268Z,6.10
2017-12-24T06:29:08.578Z,6.10
2017-12-24T06:31:36.143Z,6.10
2017-12-24T06:34:03.673Z,6.10
2017-12-24T06:36:31.949Z,6.10
2017-12-24T06:38:59.491Z,6.10
2017-12-24T06:41:27.784Z,6.00
2017-12-24T06:43:56.090Z,6.00
2017-12-24T06:46:23.604Z,6.00
2017-12-24T06:48:51.155Z,6.00
2017-12-24T06:51:18.679Z,6.00
2017-12-24T06:53:46.210Z,6.00
2017-12-24T06:56:13.796Z,6.00
2017-12-24T06:58:42.047Z,6.00
2017-12-24T07:01:09.587Z,6.00
2017-12-24T07:03:37.870Z,6.00
2017-12-24T07:06:06.174Z,6.00
2017-12-24T07:08:33.699Z,5.90
2017-12-24T07:11:01.230Z,6.00
2017-12-24T07:13:28.750Z,6.00
2017-12-24T07:15:56.287Z,6.00
2017-12-24T07:18:24.577Z,6.00
2017-12-24T07:20:52.119Z,5.90
2017-12-24T07:23:20.404Z,5.90
2017-12-24T07:25:48.685Z,5.90
2017-12-24T07:28:16.982Z,5.90
2017-12-24T07:30:44.551Z,5.90
2017-12-24T07:33:12.871Z,5.90
2017-12-24T07:35:40.396Z,5.90
2017-12-24T07:38:07.930Z,5.90
2017-12-24T07:40:35.455Z,5.90
2017-12-24T07:43:02.997Z,5.90
2017-12-24T07:45:30.522Z,6.00
2017-12-24T07:47:58.082Z,5.90
2017-12-24T07:50:25.599Z,5.90
2017-12-24T07:52:53.112Z,6.00
2017-12-24T07:55:20.645Z,6.00
2017-12-24T07:57:48.931Z,6.00
2017-12-24T08:00:16.471Z,6.00
2017-12-24T08:02:43.983Z,6.00
2017-12-24T08:05:11.522Z,6.00
2017-12-24T08:07:39.078Z,6.00
2017-12-24T08:10:06.618Z,6.10
2017-12-24T08:12:34.913Z,6.10
2017-12-24T08:15:03.216Z,6.10
2017-12-24T08:17:30.754Z,6.10
2017-12-24T08:19:59.282Z,6.10
2017-12-24T08:22:26.800Z,6.10
2017-12-24T08:24:54.319Z,6.10
2017-12-24T08:27:21.854Z,6.10
2017-12-24T08:29:49.364Z,6.20
2017-12-24T08:32:17.662Z,6.20
2017-12-24T08:34:45.190Z,6.20
2017-12-24T08:37:12.721Z,6.20
2017-12-24T08:39:40.234Z,6.10
2017-12-24T08:42:08.534Z,6.20
2017-12-24T08:44:36.058Z,6.20
2017-12-24T08:47:03.591Z,6.20
2017-12-24T08:49:31.114Z,6.30
2017-12-24T08:51:58.658Z,6.30
2017-12-24T08:54:26.179Z,6.30
2017-12-24T08:56:53.727Z,6.30
2017-12-24T08:59:22.075Z,6.30
2017-12-24T09:01:49.621Z,6.40
2017-12-24T09:04:17.142Z,6.40
2017-12-24T09:06:44.659Z,6.40
2017-12-24T09:09:12.198Z,6.40
2017-12-24T09:11:39.718Z,6.40
2017-12-24T09:14:08.014Z,6.40
2017-12-24T09:16:36.303Z,6.40
2017-12-24T09:19:04.602Z,6.40
2017-12-24T09:21:32.119Z,6.40
2017-12-24T09:23:59.660Z,6.40
2017-12-24T09:26:27.181Z,6.40
2017-12-24T09:28:54.730Z,6.40
2017-12-24T09:31:22.250Z,6.40
2017-12-24T09:33:49.763Z,6.40
2017-12-24T09:36:17.302Z,6.50
2017-12-24T09:38:44.818Z,6.50
2017-12-24T09:41:12.356Z,6.50
2017-12-24T09:43:39.870Z,6.60
2017-12-24T09:46:08.218Z,6.50
2017-12-24T09:48:36.219Z,6.50
2017-12-24T09:51:04.898Z,6.50
2017-12-24T09:53:33.489Z,6.50
2017-12-24T09:56:02.275Z,6.60
2017-12-24T09:58:30.683Z,6.60
2017-12-24T10:00:58.252Z,6.60
2017-12-24T10:03:25.795Z,6.50
2017-12-24T10:05:53.322Z,6.60
2017-12-24T10:08:20.854Z,6.60
2017-12-24T10:10:48.523Z,6.60
2017-12-24T10:13:16.086Z,6.60
2017-12-24T10:15:43.646Z,6.60
2017-12-24T10:18:11.995Z,6.60
2017-12-24T10:20:39.534Z,6.60
2017-12-24T10:23:07.116Z,6.60
2017-12-24T10:25:34.631Z,6.60
2017-12-24T10:28:02.156Z,6.60
2017-12-24T10:30:29.696Z,6.60
2017-12-24T10:32:57.842Z,6.60
2017-12-24T10:35:26.146Z,6.60
2017-12-24T10:37:53.677Z,6.60
2017-12-24T10:40:21.983Z,6.60
2017-12-24T10:42:49.498Z,6.60
2017-12-24T10:45:18.965Z,6.60
2017-12-24T10:47:46.491Z,6.70
2017-12-24T10:50:14.799Z,6.70
2017-12-24T10:52:42.322Z,6.70
2017-12-24T10:55:10.626Z,6.80
2017-12-24T10:57:38.151Z,6.80
2017-12-24T11:00:06.444Z,6.80
2017-12-24T11:02:33.995Z,6.80
2017-12-24T11:05:02.279Z,6.80
2017-12-24T11:07:30.582Z,6.80
2017-12-24T11:09:58.098Z,6.80
2017-12-24T11:12:25.631Z,6.80
2017-12-24T11:14:53.175Z,6.80
2017-12-24T11:17:20.702Z,6.80
2017-12-24T11:19:48.984Z,6.80
2017-12-24T11:22:16.558Z,6.80
2017-12-24T11:24:44.074Z,6.80
2017-12-24T11:27:11.590Z,6.80
2017-12-24T11:29:39.129Z,6.90
2017-12-24T11:32:06.639Z,6.90
2017-12-24T11:34:34.175Z,6.90
2017-12-24T11:37:01.703Z,6.90
2017-12-24T11:39:29.236Z,6.90
2017-12-24T11:41:57.532Z,6.90
2017-12-24T11:44:25.069Z,6.80
2017-12-24T11:46:52.585Z,6.80
2017-12-24T11:49:20.159Z,6.80
2017-12-24T11:51:47.675Z,6.70
2017-12-24T11:54:15.197Z,6.70
2017-12-24T11:56:42.730Z,6.70
2017-12-24T11:59:10.281Z,6.70
2017-12-24T12:01:38.587Z,6.70
2017-12-24T12:04:06.106Z,6.70
2017-12-24T12:06:33.659Z,6.70
2017-12-24T12:09:01.182Z,6.70
2017-12-24T12:11:28.731Z,6.60
2017-12-24T12:13:56.255Z,6.60
2017-12-24T12:16:23.789Z,6.60
2017-12-24T12:18:52.074Z,6.60
2017-12-24T12:21:19.652Z,6.60
2017-12-24T12:23:47.167Z,6.60
2017-12-24T12:26:14.687Z,6.60
2017-12-24T12:28:42.217Z,6.60
2017-12-24T12:31:09.733Z,6.60
2017-12-24T12:33:37.269Z,6.50
2017-12-24T12:36:04.786Z,6.50
2017-12-24T12:38:33.082Z,6.50
2017-12-24T12:41:00.595Z,6.50
2017-12-24T12:43:28.130Z,6.50
2017-12-24T12:45:55.648Z,6.50
2017-12-24T12:48:23.217Z,6.50
2017-12-24T12:50:50.738Z,6.50
2017-12-24T12:53:19.762Z,6.50
2017-12-24T12:55:48.109Z,6.50
2017-12-24T12:58:15.630Z,6.50
2017-12-24T13:00:43.211Z,6.50
2017-12-24T13:03:10.747Z,6.50
2017-12-24T13:05:38.291Z,6.50
2017-12-24T13:08:05.813Z,6.50
2017-12-24T13:10:33.355Z,6.50
2017-12-24T13:13:01.637Z,6.50
2017-12-24T13:15:29.175Z,6.50
2017-12-24T13:17:56.694Z,6.50
2017-12-24T13:20:24.994Z,6.60
2017-12-24T13:22:52.514Z,6.50
2017-12-24T13:25:20.097Z,6.60
2017-12-24T13:27:48.378Z,6.60
2017-12-24T13:30:16.955Z,6.60
2017-12-24T13:32:45.253Z,6.60
2017-12-24T13:35:12.797Z,6.60
2017-12-24T13:37:40.334Z,6.60
2017-12-24T13:40:07.851Z,6.50
2017-12-24T13:42:35.391Z,6.50
2017-12-24T13:45:02.913Z,6.40
2017-12-24T13:47:30.459Z,6.40
2017-12-24T13:49:57.982Z,6.50
2017-12-24T13:52:25.519Z,6.40
2017-12-24T13:54:53.808Z,6.40
2017-12-24T13:57:21.358Z,6.40
2017-12-24T13:59:48.880Z,6.40
2017-12-24T14:02:16.435Z,6.40
2017-12-24T14:04:43.948Z,6.40
2017-12-24T14:07:11.481Z,6.40
2017-12-24T14:09:39.030Z,6.30
2017-12-24T14:12:06.544Z,6.30
2017-12-24T14:14:34.078Z,6.30
2017-12-24T14:17:02.358Z,6.20
2017-12-24T14:19:30.661Z,6.20
2017-12-24T14:21:58.178Z,6.10
2017-12-24T14:24:25.706Z,6.20
2017-12-24T14:26:53.226Z,6.10
2017-12-24T14:29:20.794Z,6.10
2017-12-24T14:31:48.316Z,6.10
2017-12-24T14:34:15.845Z,6.10
2017-12-24T14:36:43.366Z,6.10
2017-12-24T14:39:11.671Z,6.10
2017-12-24T14:41:39.195Z,6.10
2017-12-24T14:44:07.511Z,6.10
2017-12-24T14:46:35.035Z,6.00
2017-12-24T14:49:03.337Z,6.00
2017-12-24T14:51:30.870Z,6.00
2017-12-24T14:53:59.179Z,6.00
2017-12-24T14:56:26.694Z,6.00
2017-12-24T14:58:54.205Z,6.00
2017-12-24T15:01:21.746Z,6.00
2017-12-24T15:03:50.033Z,6.00
2017-12-24T15:06:17.565Z,6.00
2017-12-24T15:08:45.088Z,6.10
2017-12-24T15:11:12.626Z,6.10
2017-12-24T15:13:40.142Z,6.10
2017-12-24T15:16:07.678Z,6.10
2017-12-24T15:18:35.200Z,6.00
2017-12-24T15:21:02.741Z,6.00
2017-12-24T15:23:31.021Z,6.00
2017-12-24T15:25:59.367Z,6.00
2017-12-24T15:28:26.888Z,6.00
2017-12-24T15:30:54.410Z,6.00
2017-12-24T15:33:22.714Z,6.00
2017-12-24T15:35:50.230Z,6.00
2017-12-24T15:38:17.761Z,6.10
2017-12-24T15:40:45.282Z,6.00
2017-12-24T15:43:13.587Z,6.00
2017-12-24T15:45:41.110Z,5.90
2017-12-24T15:48:09.411Z,6.00
2017-12-24T15:50:36.936Z,5.90
2017-12-24T15:53:04.489Z,5.90
2017-12-24T15:55:32.003Z,5.90
2017-12-24T15:57:59.557Z,6.00
2017-12-24T16:00:27.079Z,5.90
2017-12-24T16:02:54.614Z,5.90
2017-12-24T16:05:22.126Z,5.90
2017-12-24T16:07:49.672Z,5.90
2017-12-24T16:10:17.950Z,5.90
2017-12-24T16:12:46.289Z,5.90
2017-12-24T16:15:13.836Z,5.90
2017-12-24T16:17:41.351Z,5.90
2017-12-24T16:20:09.654Z,5.90
2017-12-24T16:22:37.940Z,5.90
2017-12-24T16:25:05.478Z,5.90
2017-12-24T16:27:32.999Z,5.90
2017-12-24T16:30:00.542Z,6.00
2017-12-24T16:32:28.055Z,6.00
2017-12-24T16:34:56.355Z,6.00
2017-12-24T16:37:23.870Z,6.00
2017-12-24T16:39:51.411Z,6.00
2017-12-24T16:42:18.932Z,6.00
2017-12-24T16:44:46.466Z,5.90
2017-12-24T16:47:14.749Z,5.90
2017-12-24T16:49:43.090Z,5.90
2017-12-24T16:52:10.605Z,5.90
2017-12-24T16:54:38.123Z,5.90
2017-12-24T16:57:05.650Z,5.90
2017-12-24T16:59:33.172Z,5.90
2017-12-24T17:02:01.472Z,5.90
2017-12-24T17:04:28.986Z,5.80
2017-12-24T17:06:56.522Z,5.90
2017-12-24T17:09:24.042Z,5.90
2017-12-24T17:11:51.577Z,6.00
2017-12-24T17:14:19.854Z,5.90
2017-12-24T17:16:48.160Z,5.90
2017-12-24T17:19:15.674Z,5.90
2017-12-24T17:21:43.245Z,6.00
2017-12-24T17:24:10.762Z,6.00
2017-12-24T17:26:38.315Z,5.90
2017-12-24T17:29:05.850Z,5.90
2017-12-24T17:31:33.374Z,5.90
2017-12-24T17:34:00.911Z,5.90
2017-12-24T17:36:28.426Z,6.00
2017-12-24T17:38:55.967Z,6.00
2017-12-24T17:41:23.479Z,6.00
2017-12-24T17:43:51.039Z,5.90
2017-12-24T17:46:18.566Z,5.90
2017-12-24T17:48:46.846Z,5.90
2017-12-24T17:51:14.379Z,5.90
2017-12-24T17:53:41.893Z,6.00
2017-12-24T17:56:09.437Z,6.00
2017-12-24T17:58:37.952Z,6.00
2017-12-24T18:01:05.487Z,6.00
2017-12-24T18:03:33.002Z,6.00
2017-12-24T18:06:00.542Z,6.00
2017-12-24T18:08:28.067Z,6.00
2017-12-24T18:10:55.603Z,6.10
2017-12-24T18:13:23.887Z,6.00
2017-12-24T18:15:51.425Z,6.00
2017-12-24T18:18:18.941Z,6.00
2017-12-24T18:20:46.483Z,6.10
2017-12-24T18:23:13.999Z,6.00
2017-12-24T18:25:41.531Z,6.00
2017-12-24T18:28:09.041Z,6.00
2017-12-24T18:30:37.324Z,6.10
2017-12-24T18:33:04.862Z,6.10
2017-12-24T18:35:32.580Z,6.10
2017-12-24T18:38:00.131Z,6.10
2017-12-24T18:40:27.660Z,6.20
2017-12-24T18:42:55.962Z,6.10
2017-12-24T18:45:23.528Z,6.10
2017-12-24T18:47:51.062Z,6.10
2017-12-24T18:50:19.334Z,6.10
2017-12-24T18:52:47.633Z,6.10
2017-12-24T18:55:15.158Z,6.10
2017-12-24T18:57:42.699Z,6.10
2017-12-24T19:00:10.219Z,6.10
2017-12-24T19:02:37.763Z,6.10
2017-12-24T19:05:06.046Z,6.10
2017-12-24T19:07:33.586Z,6.10
2017-12-24T19:10:01.879Z,6.10
2017-12-24T19:12:30.186Z,6.10
2017-12-24T19:14:57.708Z,6.10
2017-12-24T19:17:26.053Z,6.10
2017-12-24T19:19:53.576Z,6.10
2017-12-24T19:22:21.122Z,6.10
2017-12-24T19:24:48.643Z,6.10
2017-12-24T19:27:16.230Z,6.10
2017-12-24T19:29:44.528Z,6.10
2017-12-24T19:32:12.096Z,6.10
2017-12-24T19:34:39.634Z,6.10
2017-12-24T19:37:07.959Z,6.10
2017-12-24T19:39:35.539Z,6.00
2017-12-24T19:42:03.096Z,6.10
2017-12-24T19:44:30.677Z,6.10
2017-12-24T19:46:58.205Z,6.10
2017-12-24T19:49:25.737Z,6.10
2017-12-24T19:51:53.299Z,6.10
2017-12-24T19:54:20.879Z,6.10
2017-12-24T19:56:48.453Z,6.10
2017-12-24T19:59:16.036Z,6.10
2017-12-24T20:01:43.596Z,6.10
2017-12-24T20:04:11.176Z,6.10
2017-12-24T20:06:39.459Z,6.10
2017-12-24T20:09:07.800Z,6.10
2017-12-24T20:11:35.352Z,6.10
2017-12-24T20:14:02.933Z,6.10
2017-12-24T20:16:30.502Z,6.10
2017-12-24T20:18:58.089Z,6.10
2017-12-24T20:21:26.410Z,6.10
2017-12-24T20:23:54.044Z,6.10
2017-12-24T20:26:21.606Z,6.10
2017-12-24T20:28:49.181Z,6.10
2017-12-24T20:31:16.777Z,6.00
2017-12-24T20:33:44.357Z,6.10
2017-12-24T20:36:11.946Z,6.10
2017-12-24T20:38:39.517Z,6.10
2017-12-24T20:41:07.161Z,6.10
2017-12-24T20:43:34.693Z,6.00
2017-12-24T20:46:02.252Z,6.10
2017-12-24T20:48:29.809Z,6.10
2017-12-24T20:50:57.411Z,6.10
2017-12-24T20:53:24.985Z,6.00
2017-12-24T20:55:52.544Z,6.10
2017-12-24T20:58:29.382Z,6.00
2017-12-24T21:00:56.946Z,6.00
2017-12-24T21:03:24.537Z,6.10
2017-12-24T21:05:52.105Z,6.10
2017-12-24T21:08:19.694Z,6.00
2017-12-24T21:10:47.284Z,6.10
2017-12-24T21:13:16.640Z,6.10
2017-12-24T21:15:44.597Z,6.10
2017-12-24T21:18:12.186Z,6.10
2017-12-24T21:20:39.743Z,6.10
2017-12-24T21:23:07.330Z,6.00
2017-12-24T21:25:34.898Z,6.10
2017-12-24T21:28:02.443Z,6.10
2017-12-24T21:30:30.016Z,6.10
2017-12-24T21:32:57.606Z,6.10
2017-12-24T21:35:25.898Z,6.10
2017-12-24T21:37:54.243Z,6.10
2017-12-24T21:40:21.810Z,6.10
2017-12-24T21:42:49.394Z,6.10
2017-12-24T21:45:17.732Z,6.10
2017-12-24T21:47:45.359Z,6.10
2017-12-24T21:50:12.930Z,6.10
2017-12-24T21:52:40.541Z,6.10
2017-12-24T21:55:08.116Z,6.10
2017-12-24T21:57:36.401Z,6.10
2017-12-24T22:00:03.954Z,6.10
2017-12-24T22:02:32.280Z,6.10
2017-12-24T22:04:59.853Z,6.10
2017-12-24T22:07:27.422Z,6.10
2017-12-24T22:09:55.005Z,6.10
2017-12-24T22:12:22.568Z,6.10
2017-12-24T22:14:50.126Z,6.10
2017-12-24T22:17:17.703Z,6.10
2017-12-24T22:19:46.038Z,6.00
2017-12-24T22:22:13.580Z,6.00
2017-12-24T22:24:41.154Z,6.00
2017-12-24T22:27:08.697Z,6.00
2017-12-24T22:29:36.266Z,6.00
2017-12-24T22:32:03.849Z,6.00
2017-12-24T22:34:31.374Z,6.10
2017-12-24T22:36:58.992Z,6.00
2017-12-24T22:39:26.560Z,6.00
2017-12-24T22:41:54.076Z,6.00
2017-12-24T22:44:21.619Z,6.00
2017-12-24T22:46:49.148Z,6.00
2017-12-24T22:49:17.497Z,6.00
2017-12-24T22:51:45.057Z,6.00
2017-12-24T22:54:12.641Z,6.00
2017-12-24T22:56:40.206Z,5.90
2017-12-24T22:59:08.572Z,5.90
2017-12-24T23:01:36.086Z,5.90
2017-12-24T23:04:03.664Z,5.90
2017-12-24T23:06:31.233Z,5.90
2017-12-24T23:08:58.814Z,6.00
2017-12-24T23:11:26.381Z,5.90
2017-12-24T23:13:53.936Z,5.90
2017-12-24T23:16:21.516Z,5.90
2017-12-24T23:18:49.843Z,5.90
2017-12-24T23:21:17.421Z,5.80
2017-12-24T23:23:44.951Z,5.80
2017-12-24T23:26:12.492Z,5.90
2017-12-24T23:28:40.062Z,5.90
2017-12-24T23:31:07.648Z,5.80
2017-12-24T23:33:35.171Z,5.80
2017-12-24T23:36:03.483Z,5.80
2017-12-24T23:38:31.062Z,5.80
2017-12-24T23:40:58.611Z,5.80
2017-12-24T23:43:26.167Z,5.80
2017-12-24T23:45:53.704Z,5.80
2017-12-24T23:48:21.233Z,5.80
2017-12-24T23:50:48.775Z,5.80
2017-12-24T23:53:16.295Z,5.80
2017-12-24T23:55:43.829Z,5.80
2017-12-24T23:58:12.117Z,5.70
